Terminal Aerodrome Forecast
Issued by NWS Sterling, VA

Home | Current Version | Previous Version | Text Only | Print | Product List | Glossary On
Versions: 1 2 3 4 5 6 7 8 9 10 11 12 13 14 15 16 17 18 19 20 21 22 23 24 25 26
010
FTUS41 KLWX 281457 AAB
TAFDCA
TAF AMD
KDCA 281457Z 2815/2912 VRB03KT P6SM FEW016 SCT023 OVC080
     FM281700 16005KT P6SM SHRA VCTS OVC030CB
     FM282200 09006KT 3SM +SHRA OVC010
     FM290600 07006KT 5SM SHRA OVC030
     FM290900 01009KT 5SM -SHRA OVC030=

USA.gov is the U.S. government's official web portal to all federal, state and local government web resources and services.